Time;durP1;ratioP1;P1;durP2;ratioP2;P2;SDS_P1;SDS_P2;PMS_P1;PMS_P2;Temp;Humidity;BMP_temperature;BMP_pressure;BME280_temperature;BME280_humidity;BME280_pressure;Samples;Min_cycle;Max_cycle;Signal;HPM_P1;HPM_P2
2023/08/27 00:01:11;;;;;;;5.45;1.60;;;21.70;76.20;;;;;;2515894;54;21020;-75
2023/08/27 00:03:39;;;;;;;3.00;1.50;;;21.70;76.30;;;;;;2484252;55;20970;-75
2023/08/27 00:06:06;;;;;;;3.20;1.77;;;21.70;76.30;;;;;;2476739;55;20969;-75
2023/08/27 00:08:32;;;;;;;2.60;1.30;;;21.80;76.50;;;;;;2476931;55;20938;-75
2023/08/27 00:10:59;;;;;;;4.45;1.95;;;21.70;76.50;;;;;;2490745;54;20990;-74
2023/08/27 00:13:25;;;;;;;5.40;1.55;;;21.70;76.80;;;;;;2484070;55;20945;-75
2023/08/27 00:15:56;;;;;;;3.70;1.52;;;21.70;76.60;;;;;;2483597;55;20986;-74
2023/08/27 00:18:22;;;;;;;3.33;1.50;;;21.70;76.40;;;;;;2252029;56;20952;-75
2023/08/27 00:20:49;;;;;;;2.92;1.58;;;21.80;76.60;;;;;;2256081;56;20947;-74
2023/08/27 00:23:15;;;;;;;3.05;1.55;;;21.70;76.60;;;;;;2255705;56;20949;-75
2023/08/27 00:25:46;;;;;;;3.40;1.40;;;21.70;76.60;;;;;;2483487;55;20939;-74
2023/08/27 00:28:15;;;;;;;2.97;1.50;;;21.80;76.60;;;;;;2483640;55;21023;-72
2023/08/27 00:30:41;;;;;;;2.92;1.50;;;21.80;76.80;;;;;;2259104;55;20961;-74
2023/08/27 00:33:07;;;;;;;3.42;1.50;;;21.80;76.90;;;;;;2484042;55;21007;-75
2023/08/27 00:35:38;;;;;;;3.40;1.48;;;21.80;76.90;;;;;;2484134;55;20925;-77
2023/08/27 00:38:06;;;;;;;2.90;1.35;;;21.80;76.80;;;;;;2481044;55;21070;-74
2023/08/27 00:40:32;;;;;;;3.08;1.50;;;21.80;76.80;;;;;;2483789;55;20943;-75
2023/08/27 00:42:58;;;;;;;4.30;1.70;;;21.80;76.70;;;;;;2255691;56;21013;-77
2023/08/27 00:45:25;;;;;;;3.78;1.52;;;21.80;76.70;;;;;;2478823;55;20964;-77
2023/08/27 00:47:52;;;;;;;3.80;1.75;;;21.80;76.70;;;;;;2460437;55;21073;-76
2023/08/27 00:50:19;;;;;;;3.00;1.30;;;21.80;76.60;;;;;;2244156;56;21006;-77
2023/08/27 00:52:46;;;;;;;2.97;1.40;;;21.80;76.60;;;;;;2277575;56;21541;-76
2023/08/27 00:55:12;;;;;;;2.80;1.40;;;21.80;76.60;;;;;;2278665;56;20951;-77
2023/08/27 00:57:39;;;;;;;3.15;1.37;;;21.80;76.50;;;;;;2247078;56;21021;-75
2023/08/27 01:00:09;;;;;;;3.05;1.35;;;21.80;76.50;;;;;;2485137;55;21056;-76
2023/08/27 01:02:38;;;;;;;2.80;1.40;;;21.80;76.50;;;;;;2485169;55;21123;-76
2023/08/27 01:05:05;;;;;;;3.10;1.30;;;21.80;76.60;;;;;;2485236;55;21450;-77
2023/08/27 01:14:23;;;;;;;3.12;1.20;;;21.80;76.60;;;;;;2484953;55;20985;-76
2023/08/27 01:16:50;;;;;;;3.08;1.00;;;21.80;76.40;;;;;;2490329;55;21098;-76
2023/08/27 01:19:17;;;;;;;2.12;1.02;;;21.80;76.30;;;;;;2483579;55;21003;-77
2023/08/27 01:21:43;;;;;;;3.30;1.20;;;21.80;76.30;;;;;;2483608;55;21025;-77
2023/08/27 01:24:10;;;;;;;2.50;1.25;;;21.80;76.30;;;;;;2483890;55;21429;-77
2023/08/27 01:33:31;;;;;;;6.72;1.10;;;21.80;76.30;;;;;;2483912;55;20977;-77
2023/08/27 01:35:58;;;;;;;2.05;0.98;;;21.80;76.00;;;;;;2256086;56;21835;-76
2023/08/27 01:38:27;;;;;;;2.72;1.10;;;21.80;76.30;;;;;;2257427;56;20937;-76
2023/08/27 01:40:54;;;;;;;5.60;2.83;;;21.80;76.30;;;;;;2490397;54;20960;-75
2023/08/27 01:43:20;;;;;;;5.12;2.33;;;21.70;76.30;;;;;;2483900;55;20958;-74
2023/08/27 01:45:47;;;;;;;3.58;2.00;;;21.70;76.30;;;;;;2450232;55;21475;-75
2023/08/27 01:48:14;;;;;;;3.80;2.00;;;21.70;76.30;;;;;;2483753;55;20938;-75
2023/08/27 01:50:40;;;;;;;3.97;1.65;;;21.70;76.40;;;;;;2483840;55;21130;-75
2023/08/27 01:53:07;;;;;;;4.05;1.70;;;21.70;76.40;;;;;;2484584;55;20938;-74
2023/08/27 01:55:34;;;;;;;3.22;1.50;;;21.70;76.40;;;;;;2256498;56;21810;-75
2023/08/27 01:58:00;;;;;;;2.42;1.23;;;21.70;76.40;;;;;;2255551;56;21017;-75
2023/08/27 02:00:26;;;;;;;2.55;1.20;;;21.70;76.30;;;;;;2483681;55;21018;-76
2023/08/27 02:02:53;;;;;;;3.30;1.20;;;21.70;76.30;;;;;;2483563;55;20962;-75
2023/08/27 02:05:19;;;;;;;4.95;1.50;;;21.60;76.10;;;;;;2483983;55;20961;-76
2023/08/27 02:07:45;;;;;;;2.53;1.12;;;21.70;76.20;;;;;;2483501;55;21032;-78
2023/08/27 02:10:12;;;;;;;2.67;1.40;;;21.60;76.00;;;;;;2280869;56;21014;-74
2023/08/27 02:12:39;;;;;;;3.33;1.52;;;21.60;76.10;;;;;;2515327;55;21479;-76
2023/08/27 02:15:09;;;;;;;3.40;1.20;;;21.60;76.10;;;;;;2495820;55;20999;-75
2023/08/27 02:17:35;;;;;;;3.00;1.45;;;21.60;76.10;;;;;;2486777;55;21041;-74
2023/08/27 02:20:08;;;;;;;3.25;1.25;;;21.60;76.20;;;;;;2483459;55;20955;-77
2023/08/27 02:22:36;;;;;;;3.87;1.50;;;21.60;76.30;;;;;;2483385;55;20973;-76
2023/08/27 02:25:05;;;;;;;2.97;1.40;;;21.60;76.40;;;;;;2484272;55;21019;-76
2023/08/27 02:27:32;;;;;;;2.53;1.17;;;21.60;76.40;;;;;;2256367;56;20948;-76
2023/08/27 02:29:58;;;;;;;3.08;1.23;;;21.60;76.30;;;;;;2483273;55;21353;-76
2023/08/27 02:32:24;;;;;;;2.87;1.33;;;21.60;76.30;;;;;;2483304;55;21008;-75
2023/08/27 02:34:52;;;;;;;2.83;1.20;;;21.60;76.30;;;;;;2482954;55;20989;-76
2023/08/27 02:37:18;;;;;;;2.65;1.40;;;21.50;76.30;;;;;;2476530;55;21329;-76
2023/08/27 02:39:45;;;;;;;4.53;1.42;;;21.60;76.40;;;;;;2483892;55;21487;-77
2023/08/27 02:42:13;;;;;;;4.97;1.60;;;21.60;77.20;;;;;;2484150;55;20934;-77
2023/08/27 02:44:41;;;;;;;3.08;1.52;;;21.60;76.60;;;;;;2256191;56;20946;-76
2023/08/27 02:47:10;;;;;;;4.45;1.37;;;21.60;76.50;;;;;;2484453;55;21007;-77
2023/08/27 02:49:36;;;;;;;2.85;1.35;;;21.60;76.50;;;;;;2256457;56;20958;-77
2023/08/27 02:52:03;;;;;;;3.53;1.50;;;21.60;76.60;;;;;;2482949;55;20953;-76
2023/08/27 02:54:30;;;;;;;5.15;2.22;;;21.60;76.70;;;;;;2256228;56;20944;-75
2023/08/27 02:56:56;;;;;;;2.87;1.27;;;21.60;76.60;;;;;;2483365;55;21083;-74
2023/08/27 02:59:23;;;;;;;4.75;1.70;;;21.60;76.70;;;;;;2483066;55;21042;-77
2023/08/27 03:01:51;;;;;;;3.60;1.35;;;21.60;76.70;;;;;;2256411;56;21001;-77
2023/08/27 03:04:18;;;;;;;4.47;1.40;;;21.60;76.60;;;;;;2494229;55;21025;-77
2023/08/27 03:06:45;;;;;;;3.92;1.35;;;21.60;76.70;;;;;;2469282;55;21563;-77
2023/08/27 03:09:11;;;;;;;3.30;1.20;;;21.60;76.70;;;;;;2472523;55;20999;-76
2023/08/27 03:11:39;;;;;;;2.47;1.02;;;21.60;76.70;;;;;;2483581;55;20966;-74
2023/08/27 03:14:07;;;;;;;2.47;1.20;;;21.60;76.70;;;;;;2484229;55;20953;-76
2023/08/27 03:16:36;;;;;;;3.58;1.30;;;21.60;76.70;;;;;;2490328;55;21024;-75
2023/08/27 03:19:06;;;;;;;2.05;0.98;;;21.60;76.70;;;;;;2476013;55;20950;-76
2023/08/27 03:21:32;;;;;;;2.03;1.00;;;21.70;76.70;;;;;;2483694;55;21403;-77
2023/08/27 03:23:59;;;;;;;2.85;1.25;;;21.60;76.50;;;;;;2483563;55;20949;-76
2023/08/27 03:26:28;;;;;;;1.95;1.00;;;21.60;76.50;;;;;;2490196;55;20958;-77
2023/08/27 03:28:54;;;;;;;2.22;1.02;;;21.60;76.40;;;;;;2483760;55;21211;-76
2023/08/27 03:31:20;;;;;;;3.15;1.37;;;21.60;76.50;;;;;;2482873;55;21049;-76
2023/08/27 03:33:47;;;;;;;2.62;1.20;;;21.60;76.50;;;;;;2464000;55;20971;-77
2023/08/27 03:36:27;;;;;;;2.50;1.00;;;21.60;76.40;;;;;;2472180;55;21308;-76
2023/08/27 03:38:57;;;;;;;2.03;1.05;;;21.60;75.70;;;;;;2472573;55;21061;-77
2023/08/27 03:41:23;;;;;;;2.12;1.02;;;21.60;76.10;;;;;;2458324;55;21428;-76
2023/08/27 03:43:49;;;;;;;3.80;1.08;;;21.60;76.40;;;;;;2484342;55;21654;-76
2023/08/27 03:46:16;;;;;;;3.25;1.50;;;21.60;76.40;;;;;;2484591;55;21412;-76
2023/08/27 03:48:42;;;;;;;2.72;1.12;;;21.60;76.40;;;;;;2483463;55;20947;-77
2023/08/27 03:51:09;;;;;;;2.03;0.98;;;21.60;76.40;;;;;;2486392;55;20931;-75
2023/08/27 03:53:36;;;;;;;3.87;1.10;;;21.60;76.50;;;;;;2488708;55;21013;-77
2023/08/27 03:56:03;;;;;;;2.65;1.10;;;21.60;76.60;;;;;;2484434;55;21422;-74
2023/08/27 03:58:30;;;;;;;2.87;1.33;;;21.60;76.60;;;;;;2484237;55;21250;-76
2023/08/27 04:00:56;;;;;;;2.30;1.20;;;21.60;76.50;;;;;;2451358;55;20964;-76
2023/08/27 04:03:22;;;;;;;1.92;1.00;;;21.60;76.40;;;;;;2508359;55;20923;-73
2023/08/27 04:05:49;;;;;;;1.92;0.98;;;21.60;76.40;;;;;;2510976;55;20935;-76
2023/08/27 04:08:16;;;;;;;3.08;1.05;;;21.60;76.50;;;;;;2511260;55;20965;-75
2023/08/27 04:10:52;;;;;;;2.20;1.00;;;21.60;76.40;;;;;;2511255;55;20932;-76
2023/08/27 04:13:19;;;;;;;3.42;1.12;;;21.60;76.10;;;;;;2491697;55;21030;-76
2023/08/27 04:15:47;;;;;;;1.75;0.88;;;21.60;76.50;;;;;;2481843;55;20997;-77
2023/08/27 04:18:14;;;;;;;1.95;0.93;;;21.60;76.30;;;;;;2477508;55;21027;-77
2023/08/27 04:20:41;;;;;;;2.20;0.95;;;21.60;76.40;;;;;;2481019;55;21074;-76
2023/08/27 04:23:07;;;;;;;3.17;1.10;;;21.60;76.40;;;;;;2477682;55;20954;-76
2023/08/27 04:25:36;;;;;;;2.12;1.12;;;21.60;76.30;;;;;;2483936;55;21022;-74
2023/08/27 04:28:05;;;;;;;2.58;1.00;;;21.50;76.20;;;;;;2484086;55;21734;-76
2023/08/27 04:30:33;;;;;;;2.22;1.10;;;21.60;76.10;;;;;;2515654;54;20988;-76
2023/08/27 04:33:00;;;;;;;1.73;0.90;;;21.50;76.30;;;;;;2515524;54;21004;-76
2023/08/27 04:35:29;;;;;;;4.07;1.48;;;21.50;76.30;;;;;;2281971;56;21043;-75
2023/08/27 04:37:55;;;;;;;2.10;1.00;;;21.50;76.40;;;;;;2514572;54;20968;-76
2023/08/27 04:40:22;;;;;;;2.55;1.02;;;21.50;76.40;;;;;;2515715;54;20948;-76
2023/08/27 04:42:49;;;;;;;2.03;0.90;;;21.50;76.30;;;;;;2514864;54;21008;-77
2023/08/27 04:45:18;;;;;;;2.65;1.10;;;21.50;76.40;;;;;;2515368;54;21023;-75
2023/08/27 04:47:45;;;;;;;3.90;1.75;;;21.50;76.40;;;;;;2282058;56;21000;-76
2023/08/27 04:50:14;;;;;;;2.08;1.00;;;21.50;76.40;;;;;;2281010;56;20936;-76
2023/08/27 04:52:40;;;;;;;3.15;1.37;;;21.50;76.40;;;;;;2513897;54;21019;-76
2023/08/27 04:55:07;;;;;;;2.45;1.05;;;21.50;76.40;;;;;;2497245;54;20937;-76
2023/08/27 04:57:37;;;;;;;2.83;1.25;;;21.50;76.40;;;;;;2497937;55;20991;-76
2023/08/27 05:00:12;;;;;;;2.53;1.12;;;21.50;76.40;;;;;;2475491;55;21426;-76
2023/08/27 05:02:38;;;;;;;2.00;1.02;;;21.50;76.30;;;;;;2250684;56;21867;-74
2023/08/27 05:05:05;;;;;;;2.53;1.05;;;21.50;76.40;;;;;;2245156;55;21030;-75
2023/08/27 05:07:31;;;;;;;2.97;1.00;;;21.50;76.60;;;;;;2483741;55;20982;-76
2023/08/27 05:09:58;;;;;;;1.80;0.93;;;21.50;76.40;;;;;;2484198;55;21061;-76
2023/08/27 05:12:24;;;;;;;2.55;1.08;;;21.50;76.40;;;;;;2494029;55;20947;-76
2023/08/27 05:14:51;;;;;;;2.50;0.98;;;21.50;76.30;;;;;;2506675;55;21018;-76
2023/08/27 05:17:17;;;;;;;2.50;1.05;;;21.50;76.30;;;;;;2483842;55;21070;-75
2023/08/27 05:19:45;;;;;;;1.92;0.98;;;21.50;76.30;;;;;;2483729;55;21536;-74
2023/08/27 05:22:11;;;;;;;3.17;1.48;;;21.50;76.40;;;;;;2482528;55;21055;-76
2023/08/27 05:24:38;;;;;;;2.03;0.95;;;21.50;76.50;;;;;;2476662;55;21063;-75
2023/08/27 05:27:05;;;;;;;3.67;1.00;;;21.40;76.40;;;;;;2468894;55;21015;-75
2023/08/27 05:29:31;;;;;;;1.60;0.80;;;21.50;76.60;;;;;;2281071;55;20991;-75
2023/08/27 05:31:57;;;;;;;1.70;0.85;;;21.40;76.60;;;;;;2520709;54;21602;-76
2023/08/27 05:34:24;;;;;;;2.10;0.95;;;21.40;76.60;;;;;;2521692;54;20982;-76
2023/08/27 05:36:50;;;;;;;2.58;0.82;;;21.50;76.70;;;;;;2521031;54;21432;-76
2023/08/27 05:39:16;;;;;;;2.10;1.10;;;21.50;76.60;;;;;;2521911;54;20970;-73
2023/08/27 05:41:43;;;;;;;1.75;0.88;;;21.50;76.60;;;;;;2515800;54;20974;-75
2023/08/27 05:44:09;;;;;;;2.37;0.90;;;21.50;76.70;;;;;;2521779;55;21005;-75
2023/08/27 05:46:36;;;;;;;3.22;0.93;;;21.50;76.70;;;;;;2521620;55;21030;-74
2023/08/27 05:49:04;;;;;;;3.00;0.88;;;21.50;76.70;;;;;;2287698;56;20998;-79
2023/08/27 05:51:31;;;;;;;1.98;0.90;;;21.50;76.80;;;;;;2521884;55;20953;-78
2023/08/27 05:53:57;;;;;;;2.12;1.08;;;21.50;76.90;;;;;;2520622;54;21922;-76
2023/08/27 05:56:26;;;;;;;2.62;1.00;;;21.50;76.80;;;;;;2283385;56;21014;-79
2023/08/27 05:58:53;;;;;;;2.17;0.80;;;21.50;76.90;;;;;;2521373;55;21014;-75
2023/08/27 06:01:19;;;;;;;1.85;0.80;;;21.50;76.90;;;;;;2288668;55;21487;-75
2023/08/27 06:03:46;;;;;;;2.92;0.90;;;21.50;76.90;;;;;;2518664;55;20950;-75
2023/08/27 06:06:12;;;;;;;2.95;0.98;;;21.50;76.90;;;;;;2516564;54;21012;-77
2023/08/27 06:08:38;;;;;;;2.33;0.90;;;21.50;77.00;;;;;;2286434;55;20994;-75
2023/08/27 06:11:05;;;;;;;2.58;1.10;;;21.60;77.10;;;;;;2521534;55;20963;-78
2023/08/27 06:13:31;;;;;;;3.17;1.00;;;21.60;77.10;;;;;;2521546;55;21042;-76
2023/08/27 06:15:58;;;;;;;1.87;1.02;;;21.60;77.10;;;;;;2521742;55;22046;-75
2023/08/27 06:18:24;;;;;;;1.48;0.68;;;21.60;77.10;;;;;;2521144;55;21488;-79
2023/08/27 06:20:51;;;;;;;1.83;0.80;;;21.60;77.00;;;;;;2287082;55;21017;-78
2023/08/27 06:23:18;;;;;;;2.62;1.08;;;21.60;77.00;;;;;;2521122;55;20954;-77
2023/08/27 06:25:44;;;;;;;4.10;1.20;;;21.60;77.60;;;;;;2520577;55;21006;-76
2023/08/27 06:28:11;;;;;;;3.37;1.00;;;21.70;77.10;;;;;;2521766;55;20962;-75
2023/08/27 06:30:41;;;;;;;2.10;0.65;;;21.70;77.10;;;;;;2520653;55;21058;-77
2023/08/27 06:33:09;;;;;;;2.83;0.90;;;21.70;76.90;;;;;;2503523;55;21740;-75
2023/08/27 06:35:36;;;;;;;1.75;0.75;;;21.70;77.00;;;;;;2483124;55;21011;-76
2023/08/27 06:38:03;;;;;;;2.12;0.90;;;21.70;77.00;;;;;;2484029;55;21548;-75
2023/08/27 06:40:32;;;;;;;2.47;1.00;;;21.70;77.00;;;;;;2483681;55;20975;-75
2023/08/27 06:43:02;;;;;;;1.62;0.80;;;21.80;77.00;;;;;;2483034;55;20977;-76
2023/08/27 06:45:28;;;;;;;2.45;1.00;;;21.70;77.00;;;;;;2483670;55;20970;-76
2023/08/27 06:47:56;;;;;;;2.10;0.80;;;21.80;77.00;;;;;;2484103;55;21114;-76
2023/08/27 06:50:22;;;;;;;1.87;0.90;;;21.80;77.00;;;;;;2484140;55;20927;-76
2023/08/27 06:52:49;;;;;;;2.00;0.90;;;21.80;77.10;;;;;;2479397;55;21065;-77
2023/08/27 06:55:15;;;;;;;2.87;1.00;;;21.80;77.00;;;;;;2463160;55;20978;-75
2023/08/27 06:57:41;;;;;;;2.35;0.98;;;21.80;77.00;;;;;;2472214;55;20954;-77
2023/08/27 07:00:09;;;;;;;1.90;0.90;;;21.80;77.00;;;;;;2282847;56;21773;-76
2023/08/27 07:02:36;;;;;;;2.30;1.00;;;21.80;77.00;;;;;;2514785;55;21891;-75
2023/08/27 07:05:08;;;;;;;2.80;1.15;;;21.90;77.10;;;;;;2515705;55;21535;-76
2023/08/27 07:07:37;;;;;;;2.90;1.00;;;21.90;77.10;;;;;;2497856;55;20927;-77
2023/08/27 07:10:04;;;;;;;2.20;0.90;;;21.90;77.00;;;;;;2257479;56;20964;-75
2023/08/27 07:12:34;;;;;;;2.45;0.98;;;21.90;77.10;;;;;;2478632;55;21058;-73
2023/08/27 07:15:04;;;;;;;3.55;0.90;;;21.90;76.90;;;;;;2256128;56;20994;-76
2023/08/27 07:17:33;;;;;;;3.17;0.90;;;22.00;77.70;;;;;;2256843;56;21023;-75
2023/08/27 07:19:59;;;;;;;2.25;1.10;;;22.00;77.20;;;;;;2484479;55;21108;-76
2023/08/27 07:22:26;;;;;;;2.35;1.10;;;22.00;77.20;;;;;;2484160;55;21011;-75
2023/08/27 07:24:57;;;;;;;2.83;1.02;;;22.00;77.10;;;;;;2478346;55;21073;-75
2023/08/27 07:27:23;;;;;;;3.67;1.17;;;22.10;77.20;;;;;;2479237;55;20982;-76
2023/08/27 07:29:50;;;;;;;1.70;0.80;;;22.10;77.30;;;;;;2484266;55;21014;-75
2023/08/27 07:32:16;;;;;;;2.33;1.05;;;22.10;77.30;;;;;;2479968;55;21047;-76
2023/08/27 07:34:43;;;;;;;2.00;0.82;;;22.10;77.20;;;;;;2455334;55;21033;-72
2023/08/27 07:37:09;;;;;;;3.00;1.20;;;22.10;77.20;;;;;;2257013;56;21065;-76
2023/08/27 07:39:36;;;;;;;1.92;0.80;;;22.10;77.20;;;;;;2472585;55;20936;-75
2023/08/27 07:42:03;;;;;;;2.72;0.90;;;22.30;77.30;;;;;;2485794;55;21012;-76
2023/08/27 07:44:30;;;;;;;2.25;0.90;;;22.20;77.20;;;;;;2485276;55;20998;-75
2023/08/27 07:46:56;;;;;;;2.20;0.95;;;22.30;77.20;;;;;;2485158;55;21030;-76
2023/08/27 07:49:24;;;;;;;1.90;1.00;;;22.30;77.20;;;;;;2485522;55;20950;-75
2023/08/27 07:51:53;;;;;;;2.30;1.00;;;22.30;77.20;;;;;;2484410;55;20970;-77
2023/08/27 07:54:19;;;;;;;2.08;0.90;;;22.30;77.10;;;;;;2485536;55;20943;-75
2023/08/27 07:56:47;;;;;;;1.65;0.65;;;22.40;77.10;;;;;;2486356;55;20994;-77
2023/08/27 07:59:14;;;;;;;2.08;0.82;;;22.40;77.10;;;;;;2487670;55;21393;-75
2023/08/27 08:01:41;;;;;;;2.28;0.90;;;22.40;77.10;;;;;;2487220;55;20978;-76
2023/08/27 08:04:07;;;;;;;2.00;0.90;;;22.40;77.10;;;;;;2485723;55;21062;-77
2023/08/27 08:06:34;;;;;;;3.05;1.33;;;22.40;76.80;;;;;;2485650;55;21065;-75
2023/08/27 08:09:00;;;;;;;3.10;1.10;;;22.50;76.80;;;;;;2508592;55;21006;-75
2023/08/27 08:11:26;;;;;;;5.12;1.25;;;22.50;76.90;;;;;;2516190;55;21029;-74
2023/08/27 08:13:53;;;;;;;1.98;0.88;;;22.50;77.00;;;;;;2282093;56;20974;-76
2023/08/27 08:16:22;;;;;;;2.87;1.08;;;22.50;77.00;;;;;;2282610;56;21001;-76
2023/08/27 08:18:48;;;;;;;1.87;0.90;;;22.50;77.10;;;;;;2488954;55;20973;-76
2023/08/27 08:21:14;;;;;;;2.70;1.08;;;22.60;77.20;;;;;;2256783;56;20954;-77
2023/08/27 08:23:41;;;;;;;4.37;1.15;;;22.60;77.20;;;;;;2484048;55;20949;-77
2023/08/27 08:26:09;;;;;;;3.15;1.15;;;22.60;77.10;;;;;;2256712;56;20994;-77
2023/08/27 08:28:35;;;;;;;2.50;1.10;;;22.70;77.00;;;;;;2484316;55;21788;-75
2023/08/27 08:31:03;;;;;;;3.22;1.20;;;22.70;77.00;;;;;;2483675;55;21065;-76
2023/08/27 08:33:29;;;;;;;3.15;1.20;;;22.70;76.90;;;;;;2481938;55;20991;-77
2023/08/27 08:35:56;;;;;;;2.22;0.93;;;22.70;76.70;;;;;;2483693;55;21085;-76
2023/08/27 08:38:26;;;;;;;2.08;1.08;;;22.70;76.80;;;;;;2482041;55;20990;-73
2023/08/27 08:40:57;;;;;;;2.45;1.20;;;22.80;76.60;;;;;;2477074;55;20970;-74
2023/08/27 08:43:44;;;;;;;2.03;0.90;;;22.80;76.50;;;;;;2256495;56;20966;-72
2023/08/27 08:46:11;;;;;;;2.10;0.90;;;22.80;75.60;;;;;;2484490;55;21491;-72
2023/08/27 08:48:42;;;;;;;2.20;1.00;;;22.80;76.70;;;;;;2459650;55;21400;-72
2023/08/27 08:51:12;;;;;;;2.28;1.10;;;22.80;76.30;;;;;;2263412;56;21459;-73
2023/08/27 08:53:43;;;;;;;2.15;1.00;;;22.90;76.40;;;;;;2256227;56;21551;-71
2023/08/27 08:56:22;;;;;;;2.50;1.12;;;22.90;76.40;;;;;;2257692;56;21066;-72
2023/08/27 08:58:54;;;;;;;2.50;1.10;;;22.90;75.90;;;;;;2484158;55;20970;-73
2023/08/27 09:01:20;;;;;;;2.70;1.00;;;23.00;76.50;;;;;;2498583;55;20961;-73
2023/08/27 09:03:48;;;;;;;2.55;1.10;;;23.00;76.80;;;;;;2282840;56;20978;-74
2023/08/27 09:06:23;;;;;;;3.17;1.30;;;23.00;76.70;;;;;;2478077;55;21199;-72
2023/08/27 09:08:52;;;;;;;2.25;0.90;;;23.00;76.10;;;;;;2485095;55;21438;-72
2023/08/27 09:11:20;;;;;;;2.20;0.90;;;23.00;76.30;;;;;;2257431;56;20962;-73
2023/08/27 09:13:46;;;;;;;3.47;1.00;;;23.00;76.60;;;;;;2476473;55;21029;-74
2023/08/27 09:16:13;;;;;;;3.08;1.10;;;23.10;76.80;;;;;;2256305;56;21099;-73
2023/08/27 09:18:39;;;;;;;2.50;0.95;;;23.10;76.80;;;;;;2256614;56;21010;-73
2023/08/27 09:21:06;;;;;;;3.40;1.45;;;23.10;76.70;;;;;;2257213;56;21594;-73
2023/08/27 09:23:37;;;;;;;3.10;1.20;;;23.10;76.70;;;;;;2484189;55;21598;-74
2023/08/27 09:26:06;;;;;;;2.17;1.08;;;23.20;76.70;;;;;;2262811;56;21021;-72
2023/08/27 09:28:33;;;;;;;3.12;1.40;;;23.20;76.30;;;;;;2490918;54;20979;-73
2023/08/27 09:31:01;;;;;;;3.17;1.10;;;23.20;76.50;;;;;;2483924;55;21542;-74
2023/08/27 09:33:44;;;;;;;2.67;1.05;;;23.20;76.50;;;;;;2483932;55;20953;-73
2023/08/27 09:36:12;;;;;;;2.30;1.10;;;23.30;75.80;;;;;;2256693;56;20984;-73
2023/08/27 09:38:39;;;;;;;2.15;1.05;;;23.30;76.50;;;;;;2484430;55;21749;-70
2023/08/27 09:41:15;;;;;;;4.15;1.00;;;23.30;76.60;;;;;;2484954;55;20954;-72
2023/08/27 09:43:53;;;;;;;2.65;1.33;;;23.30;76.10;;;;;;2256708;56;21981;-73
2023/08/27 09:46:20;;;;;;;2.50;1.08;;;23.40;76.50;;;;;;2452920;55;21965;-73
2023/08/27 09:48:59;;;;;;;3.03;1.20;;;23.40;77.00;;;;;;2255155;56;21090;-74
2023/08/27 09:51:29;;;;;;;3.30;1.10;;;23.40;76.40;;;;;;2258239;56;21434;-73
2023/08/27 09:53:55;;;;;;;1.90;0.93;;;23.50;77.10;;;;;;2490916;55;20971;-71
2023/08/27 09:56:23;;;;;;;2.80;1.20;;;23.50;77.30;;;;;;2515863;54;20968;-73
2023/08/27 09:58:52;;;;;;;2.58;1.20;;;23.60;77.30;;;;;;2515449;54;21031;-73
2023/08/27 10:01:18;;;;;;;2.50;1.10;;;23.60;77.10;;;;;;2516699;55;21693;-74
2023/08/27 10:03:46;;;;;;;2.50;1.20;;;23.60;77.10;;;;;;2282380;56;20967;-73
2023/08/27 10:06:13;;;;;;;2.33;1.08;;;23.70;77.00;;;;;;2282957;56;20959;-73
2023/08/27 10:08:47;;;;;;;2.62;0.98;;;23.80;77.20;;;;;;2515611;54;20995;-73
2023/08/27 10:11:13;;;;;;;2.22;1.05;;;23.80;76.40;;;;;;2515762;54;20960;-74
2023/08/27 10:13:40;;;;;;;2.60;1.30;;;23.80;77.00;;;;;;2282320;56;20959;-73
2023/08/27 10:16:07;;;;;;;3.58;1.27;;;23.90;76.90;;;;;;2516341;54;20971;-73
2023/08/27 10:18:34;;;;;;;2.40;1.20;;;23.90;76.60;;;;;;2282783;56;20979;-75
2023/08/27 10:21:00;;;;;;;3.22;1.20;;;23.90;76.50;;;;;;2282621;56;21019;-73
2023/08/27 10:23:29;;;;;;;4.05;1.23;;;24.00;76.50;;;;;;2283277;55;21468;-72
2023/08/27 10:25:56;;;;;;;2.95;1.10;;;24.00;76.30;;;;;;2484900;55;21486;-74
2023/08/27 10:28:22;;;;;;;2.67;1.20;;;24.10;76.40;;;;;;2254622;55;21661;-74
2023/08/27 10:30:52;;;;;;;3.15;1.25;;;24.10;76.40;;;;;;2484858;55;21041;-72
2023/08/27 10:33:18;;;;;;;2.45;1.17;;;24.10;75.90;;;;;;2515443;55;20943;-73
2023/08/27 10:35:47;;;;;;;2.25;1.00;;;24.20;76.40;;;;;;2263233;56;21513;-73
2023/08/27 10:38:13;;;;;;;3.12;1.20;;;24.20;76.30;;;;;;2479522;55;21918;-73
2023/08/27 10:40:45;;;;;;;3.08;1.20;;;24.20;76.10;;;;;;2483260;55;21452;-72
2023/08/27 10:43:19;;;;;;;2.65;1.10;;;24.20;75.70;;;;;;2483855;55;21033;-72
2023/08/27 10:45:47;;;;;;;2.47;1.00;;;24.30;75.40;;;;;;2257020;56;20937;-74
2023/08/27 10:48:32;;;;;;;2.20;0.90;;;24.30;76.00;;;;;;2258043;56;20985;-73
2023/08/27 10:51:09;;;;;;;2.58;1.00;;;24.30;74.70;;;;;;2454347;56;21013;-73
2023/08/27 10:54:37;;;;;;;3.05;1.20;;;24.40;75.20;;;;;;2255308;56;20970;-73
2023/08/27 10:57:22;;;;;;;2.78;0.93;;;24.40;74.30;;;;;;2483541;55;20965;-72
2023/08/27 10:59:48;;;;;;;3.15;1.10;;;24.50;74.60;;;;;;2481204;55;20977;-73
2023/08/27 11:02:16;;;;;;;1.98;0.90;;;24.50;75.80;;;;;;2247764;56;20992;-72
2023/08/27 11:04:47;;;;;;;2.75;1.17;;;24.50;75.70;;;;;;2469241;55;21009;-73
2023/08/27 11:07:15;;;;;;;2.00;0.90;;;24.60;75.80;;;;;;2256337;56;20977;-73
2023/08/27 11:09:55;;;;;;;2.45;1.10;;;24.60;75.70;;;;;;2483677;55;20933;-73
2023/08/27 11:12:25;;;;;;;2.05;1.00;;;24.60;75.10;;;;;;2484018;55;21100;-73
2023/08/27 11:14:52;;;;;;;2.80;1.30;;;24.60;75.60;;;;;;2256068;56;21520;-73
2023/08/27 11:17:28;;;;;;;2.30;1.05;;;24.70;75.70;;;;;;2484427;55;20957;-74
2023/08/27 11:19:57;;;;;;;2.72;1.08;;;24.70;75.10;;;;;;2256148;56;21076;-73
2023/08/27 11:22:24;;;;;;;1.92;1.00;;;24.80;75.30;;;;;;2484873;55;22573;-73
2023/08/27 11:24:54;;;;;;;2.60;1.30;;;24.80;75.20;;;;;;2256376;56;20943;-73
2023/08/27 11:27:22;;;;;;;2.40;1.00;;;24.80;74.90;;;;;;2257448;56;21314;-74
2023/08/27 11:29:55;;;;;;;1.92;0.80;;;24.80;75.30;;;;;;2256370;56;21029;-73
2023/08/27 11:32:21;;;;;;;2.10;1.10;;;24.80;74.60;;;;;;2256489;56;21045;-74
2023/08/27 11:34:52;;;;;;;2.30;1.00;;;24.90;75.60;;;;;;2256232;56;20998;-73
2023/08/27 11:37:20;;;;;;;3.53;1.30;;;24.90;75.10;;;;;;2256810;56;20994;-72
2023/08/27 11:39:47;;;;;;;2.65;1.00;;;24.90;75.40;;;;;;2483569;55;21979;-73
2023/08/27 11:42:15;;;;;;;2.58;1.00;;;24.90;75.20;;;;;;2256882;56;21059;-74
2023/08/27 11:44:55;;;;;;;2.05;0.90;;;25.00;75.00;;;;;;2484813;55;20927;-73
2023/08/27 11:47:23;;;;;;;2.45;1.08;;;25.00;74.00;;;;;;2486058;55;20957;-73
2023/08/27 11:49:58;;;;;;;2.33;0.90;;;25.00;75.00;;;;;;2252701;56;21002;-74
2023/08/27 11:52:24;;;;;;;2.03;0.77;;;25.10;74.90;;;;;;2483721;55;21125;-74
2023/08/27 11:54:56;;;;;;;2.00;1.00;;;25.10;75.20;;;;;;2256227;55;20974;-73
2023/08/27 11:57:22;;;;;;;2.42;1.10;;;25.20;74.60;;;;;;2487708;55;21451;-73
2023/08/27 11:59:48;;;;;;;2.47;1.00;;;25.20;74.80;;;;;;2258354;56;20960;-74
2023/08/27 12:02:15;;;;;;;2.47;1.20;;;25.20;74.70;;;;;;2483739;55;20986;-73
2023/08/27 12:04:42;;;;;;;2.58;1.00;;;25.30;74.80;;;;;;2256069;56;20978;-72
2023/08/27 12:07:10;;;;;;;2.37;1.00;;;25.30;74.90;;;;;;2255967;56;21024;-73
2023/08/27 12:09:36;;;;;;;1.90;0.82;;;25.30;74.70;;;;;;2256556;56;21547;-73
2023/08/27 12:12:08;;;;;;;2.95;0.80;;;25.30;74.70;;;;;;2483866;55;21046;-73
2023/08/27 12:14:37;;;;;;;2.47;1.00;;;25.40;73.60;;;;;;2261635;56;20962;-73
2023/08/27 12:17:08;;;;;;;2.80;1.40;;;25.40;74.20;;;;;;2272889;56;21031;-72
2023/08/27 12:19:35;;;;;;;3.35;1.40;;;25.40;73.70;;;;;;2483840;55;21029;-71
2023/08/27 12:22:02;;;;;;;4.53;1.70;;;25.30;72.80;;;;;;2483489;55;20994;-71
2023/08/27 12:24:34;;;;;;;2.65;1.17;;;25.30;71.90;;;;;;2483956;55;20987;-70
2023/08/27 12:27:07;;;;;;;2.50;1.10;;;25.20;71.10;;;;;;2256660;56;20969;-71
2023/08/27 12:29:38;;;;;;;2.20;1.00;;;25.10;70.80;;;;;;2484411;55;20966;-70
2023/08/27 12:32:09;;;;;;;1.62;0.75;;;25.00;70.30;;;;;;2484087;55;20954;-69
2023/08/27 12:34:39;;;;;;;1.87;0.70;;;24.80;70.20;;;;;;2256818;55;21038;-69
2023/08/27 12:37:06;;;;;;;2.83;0.60;;;24.70;70.40;;;;;;2256286;56;20978;-70
2023/08/27 12:39:36;;;;;;;2.37;0.80;;;24.60;70.30;;;;;;2256259;56;21918;-70
2023/08/27 12:42:02;;;;;;;2.17;0.55;;;24.50;70.70;;;;;;2254438;55;21080;-69
2023/08/27 12:44:29;;;;;;;2.03;0.70;;;24.40;70.80;;;;;;2480995;55;21035;-69
2023/08/27 12:46:56;;;;;;;1.80;0.75;;;24.20;71.00;;;;;;2475456;55;21053;-70
2023/08/27 12:49:25;;;;;;;1.77;0.70;;;24.20;71.30;;;;;;2482847;55;21026;-69
2023/08/27 12:51:53;;;;;;;1.75;0.70;;;24.10;71.40;;;;;;2256255;56;20950;-69
2023/08/27 12:54:22;;;;;;;2.33;0.60;;;24.00;71.10;;;;;;2483068;55;21034;-70
2023/08/27 12:56:48;;;;;;;1.65;0.60;;;23.90;71.10;;;;;;2489522;55;20934;-71
2023/08/27 12:59:15;;;;;;;2.30;0.93;;;23.80;71.10;;;;;;2274486;56;20931;-70
2023/08/27 13:01:42;;;;;;;1.62;0.70;;;23.80;71.10;;;;;;2274617;56;21783;-71
2023/08/27 13:04:08;;;;;;;2.65;0.80;;;23.70;71.00;;;;;;2483862;55;21663;-69
2023/08/27 13:06:35;;;;;;;1.77;0.70;;;23.60;70.90;;;;;;2483216;55;20937;-70